Time;durP1;ratioP1;P1;durP2;ratioP2;P2;SDS_P1;SDS_P2;PMS_P1;PMS_P2;Temp;Humidity;BMP_temperature;BMP_pressure;BME280_temperature;BME280_humidity;BME280_pressure;Samples;Min_cycle;Max_cycle;Signal;HPM_P1;HPM_P2
2021/01/15 00:01:18;;;;;;;7.28;4.82;;;3.70;80.10;;;;;;4945123;28;20449;-78
2021/01/15 00:03:44;;;;;;;6.45;4.88;;;3.70;79.50;;;;;;4966945;28;20106;-78
2021/01/15 00:06:26;;;;;;;6.25;4.40;;;3.70;79.50;;;;;;4938756;28;20495;-78
2021/01/15 00:08:53;;;;;;;6.90;4.70;;;3.70;79.50;;;;;;4954085;29;20038;-79
2021/01/15 00:11:31;;;;;;;7.20;5.25;;;3.70;79.50;;;;;;4966309;28;20464;-78
2021/01/15 00:14:01;;;;;;;6.43;4.70;;;3.70;79.50;;;;;;4942451;28;20031;-79
2021/01/15 00:16:28;;;;;;;5.80;4.65;;;3.60;79.40;;;;;;4972890;28;20467;-79
2021/01/15 00:18:55;;;;;;;8.65;5.00;;;3.70;79.50;;;;;;4945896;28;20023;-79
2021/01/15 00:21:32;;;;;;;6.05;4.47;;;3.70;79.50;;;;;;4977194;28;20122;-78
2021/01/15 00:24:01;;;;;;;6.65;4.95;;;3.60;79.40;;;;;;4969145;28;20489;-78
2021/01/15 00:26:28;;;;;;;6.78;4.75;;;3.70;79.50;;;;;;4949640;28;20029;-78
2021/01/15 00:28:55;;;;;;;6.40;4.97;;;3.70;79.50;;;;;;4934131;28;20039;-79
2021/01/15 00:31:30;;;;;;;6.72;4.90;;;3.60;79.40;;;;;;4915741;28;20031;-79
2021/01/15 00:33:55;;;;;;;5.95;5.00;;;3.60;79.50;;;;;;4925261;28;20387;-78
2021/01/15 00:36:21;;;;;;;6.22;4.38;;;3.60;79.40;;;;;;4926744;28;20038;-78
2021/01/15 00:38:47;;;;;;;6.40;4.68;;;3.60;79.40;;;;;;4936948;28;20031;-79
2021/01/15 00:41:12;;;;;;;6.60;4.93;;;3.60;79.40;;;;;;4971510;28;20121;-78
2021/01/15 00:43:38;;;;;;;6.93;4.80;;;3.60;79.40;;;;;;4923681;28;20373;-79
2021/01/15 00:46:07;;;;;;;6.93;4.60;;;3.60;79.40;;;;;;4937466;28;20473;-79
2021/01/15 00:48:38;;;;;;;6.82;5.20;;;3.60;79.40;;;;;;4949962;28;20136;-80
2021/01/15 00:51:09;;;;;;;6.45;4.60;;;3.60;79.40;;;;;;4958909;28;20487;-79
2021/01/15 00:53:35;;;;;;;6.07;4.90;;;3.60;79.40;;;;;;4954091;28;20066;-78
2021/01/15 00:56:01;;;;;;;6.25;4.13;;;3.60;79.40;;;;;;4940772;28;20113;-78
2021/01/15 00:58:27;;;;;;;6.35;4.80;;;3.60;79.40;;;;;;4945118;29;20187;-79
2021/01/15 01:00:53;;;;;;;5.85;4.03;;;3.60;79.40;;;;;;4949038;28;20134;-78
2021/01/15 01:03:30;;;;;;;5.97;4.53;;;3.60;79.40;;;;;;4940579;29;20087;-80
2021/01/15 01:05:56;;;;;;;5.78;4.03;;;3.60;79.40;;;;;;4951999;28;20062;-78
2021/01/15 01:08:22;;;;;;;6.22;4.55;;;3.60;79.40;;;;;;4943759;29;20513;-79
2021/01/15 01:10:47;;;;;;;6.43;4.50;;;3.60;79.40;;;;;;4934310;28;20035;-77
2021/01/15 01:13:14;;;;;;;5.47;4.40;;;3.60;79.50;;;;;;4922934;28;20382;-78
2021/01/15 01:15:40;;;;;;;5.90;4.68;;;3.60;79.50;;;;;;4948342;28;20475;-78
2021/01/15 01:18:06;;;;;;;6.40;4.90;;;3.60;79.50;;;;;;4942451;28;20073;-78
2021/01/15 01:20:31;;;;;;;5.53;4.20;;;3.60;79.50;;;;;;4926912;28;20066;-78
2021/01/15 01:22:57;;;;;;;6.15;4.70;;;3.60;79.40;;;;;;4930550;29;20027;-78
2021/01/15 01:25:23;;;;;;;6.13;4.38;;;3.60;79.40;;;;;;4941597;28;20042;-79
2021/01/15 01:27:49;;;;;;;5.75;4.47;;;3.60;79.40;;;;;;4942895;28;20454;-78
2021/01/15 01:30:15;;;;;;;5.35;3.78;;;3.60;79.40;;;;;;4958543;28;20039;-78
2021/01/15 01:32:41;;;;;;;5.65;4.43;;;3.60;79.50;;;;;;4936150;28;20045;-77
2021/01/15 01:35:08;;;;;;;5.22;4.03;;;3.60;79.40;;;;;;4948274;28;20049;-78
2021/01/15 01:37:33;;;;;;;6.18;4.55;;;3.60;79.40;;;;;;4941654;28;20155;-77
2021/01/15 01:39:59;;;;;;;6.05;4.65;;;3.60;79.50;;;;;;4958188;28;20051;-79
2021/01/15 01:42:25;;;;;;;7.32;5.00;;;3.60;79.50;;;;;;4963202;28;20034;-78
2021/01/15 01:44:50;;;;;;;6.10;4.60;;;3.60;80.10;;;;;;4927195;29;20054;-77
2021/01/15 01:47:17;;;;;;;5.78;4.47;;;3.60;79.60;;;;;;4925976;28;20034;-78
2021/01/15 01:49:42;;;;;;;6.40;4.60;;;3.60;79.50;;;;;;4938636;29;20031;-78
2021/01/15 01:52:08;;;;;;;5.55;4.15;;;3.60;79.40;;;;;;4949646;28;20049;-79
2021/01/15 01:54:36;;;;;;;5.82;4.35;;;3.50;79.40;;;;;;4938557;28;20026;-78
2021/01/15 01:57:06;;;;;;;6.00;4.18;;;3.60;79.50;;;;;;4957924;28;20612;-79
2021/01/15 01:59:32;;;;;;;5.15;4.18;;;3.60;79.50;;;;;;4944481;28;20032;-78
2021/01/15 02:01:58;;;;;;;6.78;4.85;;;3.60;79.40;;;;;;4950049;29;20106;-78
2021/01/15 02:04:24;;;;;;;5.63;4.10;;;3.60;79.50;;;;;;4969333;28;20023;-81
2021/01/15 02:06:49;;;;;;;5.38;4.18;;;3.60;79.50;;;;;;4952887;28;20110;-78
2021/01/15 02:09:23;;;;;;;5.18;4.07;;;3.60;79.40;;;;;;4957656;28;20125;-79
2021/01/15 02:12:03;;;;;;;7.30;4.25;;;3.60;79.50;;;;;;4927239;28;20022;-78
2021/01/15 02:15:04;;;;;;;7.18;4.65;;;3.60;79.50;;;;;;4960839;28;20514;-78
2021/01/15 02:17:35;;;;;;;6.07;4.72;;;3.60;79.50;;;;;;4955817;28;20042;-78
2021/01/15 02:20:07;;;;;;;5.75;4.53;;;3.60;79.40;;;;;;4962223;28;20506;-78
2021/01/15 02:23:05;;;;;;;6.28;4.30;;;3.60;79.50;;;;;;4974462;28;20023;-77
2021/01/15 02:25:52;;;;;;;6.82;4.72;;;3.60;79.50;;;;;;4964730;28;20120;-78
2021/01/15 02:28:51;;;;;;;5.70;4.25;;;3.60;79.50;;;;;;4957618;28;20049;-81
2021/01/15 02:31:44;;;;;;;5.20;3.97;;;3.60;79.60;;;;;;4952187;28;20027;-78
2021/01/15 02:34:35;;;;;;;5.20;4.22;;;3.60;79.50;;;;;;4943999;28;20034;-79
2021/01/15 02:37:16;;;;;;;6.55;4.93;;;3.60;79.50;;;;;;4941438;28;20471;-80
2021/01/15 02:39:59;;;;;;;5.75;4.78;;;3.60;79.90;;;;;;4947081;29;20081;-78
2021/01/15 02:42:26;;;;;;;6.38;4.47;;;3.60;79.60;;;;;;4951527;28;20033;-79
2021/01/15 02:44:54;;;;;;;6.63;4.45;;;3.60;79.50;;;;;;4940079;28;20030;-78
2021/01/15 02:47:39;;;;;;;6.72;4.80;;;3.60;79.50;;;;;;4923405;29;20043;-81
2021/01/15 02:50:09;;;;;;;5.55;4.18;;;3.60;79.50;;;;;;4945402;28;20035;-78
2021/01/15 02:52:36;;;;;;;5.55;4.57;;;3.70;79.50;;;;;;4940730;28;20447;-78
2021/01/15 02:55:02;;;;;;;6.68;4.65;;;3.70;79.50;;;;;;4941157;28;20081;-79
2021/01/15 02:57:28;;;;;;;6.32;4.82;;;3.70;79.50;;;;;;4940940;28;20089;-78
2021/01/15 02:59:53;;;;;;;6.22;5.13;;;3.60;79.50;;;;;;4925375;28;20403;-78
2021/01/15 03:02:50;;;;;;;6.38;4.47;;;3.60;79.60;;;;;;4940803;28;20051;-79
2021/01/15 03:05:40;;;;;;;6.30;4.88;;;3.60;79.50;;;;;;4951177;28;20102;-79
2021/01/15 03:08:06;;;;;;;5.65;4.40;;;3.70;79.60;;;;;;4956951;28;20027;-79
2021/01/15 03:10:34;;;;;;;6.05;4.47;;;3.70;79.50;;;;;;4955612;28;20042;-80
2021/01/15 03:13:02;;;;;;;6.20;4.70;;;3.70;79.50;;;;;;4969709;28;20027;-78
2021/01/15 03:15:31;;;;;;;6.20;4.78;;;3.70;79.50;;;;;;4962370;28;20027;-78
2021/01/15 03:17:57;;;;;;;5.47;4.10;;;3.70;79.50;;;;;;4940312;28;20039;-81
2021/01/15 03:20:24;;;;;;;6.38;4.90;;;3.70;79.50;;;;;;4969919;28;20121;-82
2021/01/15 03:22:51;;;;;;;7.57;4.90;;;3.70;79.50;;;;;;4939313;28;20063;-79
2021/01/15 03:25:17;;;;;;;6.57;4.78;;;3.70;79.50;;;;;;4945456;28;20475;-78
2021/01/15 03:27:50;;;;;;;6.85;5.32;;;3.70;79.50;;;;;;4940276;28;20372;-78
2021/01/15 03:30:18;;;;;;;6.68;4.78;;;3.70;79.60;;;;;;4965466;28;20038;-78
2021/01/15 03:32:45;;;;;;;6.50;4.70;;;3.70;79.50;;;;;;4939801;28;20029;-79
2021/01/15 03:35:22;;;;;;;7.07;5.20;;;3.70;79.50;;;;;;4956116;28;20030;-79
2021/01/15 03:37:54;;;;;;;6.18;4.60;;;3.70;79.50;;;;;;4950809;28;20034;-78
2021/01/15 03:40:20;;;;;;;5.82;4.28;;;3.70;79.50;;;;;;4954095;28;20533;-79
2021/01/15 03:42:46;;;;;;;6.13;4.70;;;3.70;79.50;;;;;;4939344;28;20042;-78
2021/01/15 03:45:13;;;;;;;6.00;4.70;;;3.70;79.60;;;;;;4930376;28;20031;-78
2021/01/15 03:47:39;;;;;;;6.60;4.75;;;3.70;80.20;;;;;;4940272;28;20058;-78
2021/01/15 03:50:06;;;;;;;6.13;4.47;;;3.70;79.50;;;;;;4971720;28;20066;-79
2021/01/15 03:52:31;;;;;;;7.47;4.40;;;3.70;79.50;;;;;;4924778;28;20058;-78
2021/01/15 03:54:57;;;;;;;6.53;4.85;;;3.80;79.60;;;;;;4956050;28;20480;-79
2021/01/15 03:57:23;;;;;;;5.93;4.22;;;3.80;79.60;;;;;;4938960;28;20031;-78
2021/01/15 03:59:48;;;;;;;5.95;4.63;;;3.80;79.60;;;;;;4949975;29;20039;-78
2021/01/15 04:02:14;;;;;;;7.18;4.78;;;3.80;79.60;;;;;;4916211;29;20403;-78
2021/01/15 04:04:41;;;;;;;6.20;4.68;;;3.80;79.50;;;;;;4907598;29;20044;-78
2021/01/15 04:07:07;;;;;;;6.28;4.93;;;3.80;79.50;;;;;;4935033;29;20078;-79
2021/01/15 04:09:33;;;;;;;6.28;4.60;;;3.80;79.60;;;;;;4911462;29;20032;-79
2021/01/15 04:11:59;;;;;;;7.43;5.35;;;3.80;79.50;;;;;;4905584;29;20080;-78
2021/01/15 04:14:25;;;;;;;6.32;4.90;;;3.80;79.60;;;;;;4899033;29;20087;-80
2021/01/15 04:16:51;;;;;;;7.65;4.80;;;3.80;79.60;;;;;;4933435;29;20106;-78
2021/01/15 04:19:17;;;;;;;6.30;4.47;;;3.80;79.60;;;;;;4932999;29;20058;-78
2021/01/15 04:21:44;;;;;;;6.93;5.30;;;3.80;79.60;;;;;;4934376;29;20528;-79
2021/01/15 04:24:10;;;;;;;7.18;5.43;;;3.80;79.60;;;;;;4887295;29;20027;-80
2021/01/15 04:26:35;;;;;;;7.03;4.68;;;3.80;79.60;;;;;;4899306;29;20131;-79
2021/01/15 04:29:01;;;;;;;7.28;5.38;;;3.80;79.60;;;;;;4912281;29;20441;-78
2021/01/15 04:31:27;;;;;;;6.32;5.10;;;3.80;79.60;;;;;;4933638;29;20408;-79
2021/01/15 04:33:53;;;;;;;6.45;4.75;;;3.80;79.60;;;;;;4934343;29;20035;-78
2021/01/15 04:36:18;;;;;;;6.65;5.00;;;3.80;79.60;;;;;;4911179;29;20044;-78
2021/01/15 04:38:47;;;;;;;7.57;5.00;;;3.80;79.50;;;;;;4917667;29;20024;-79
2021/01/15 04:41:23;;;;;;;7.07;5.07;;;3.80;79.60;;;;;;4935607;29;20036;-79
2021/01/15 04:43:55;;;;;;;7.00;5.05;;;3.80;79.60;;;;;;4936826;29;20032;-78
2021/01/15 04:46:22;;;;;;;6.65;5.13;;;3.80;79.60;;;;;;4925312;29;20046;-78
2021/01/15 04:48:53;;;;;;;7.55;5.20;;;3.80;79.50;;;;;;4905423;29;20068;-78
2021/01/15 04:51:20;;;;;;;5.75;4.75;;;3.90;79.60;;;;;;4937730;29;20154;-78
2021/01/15 04:54:00;;;;;;;6.45;4.82;;;3.80;79.50;;;;;;4898175;29;20047;-78
2021/01/15 04:56:50;;;;;;;7.50;5.13;;;3.90;79.60;;;;;;4933475;29;20092;-78
2021/01/15 04:59:17;;;;;;;6.82;5.25;;;3.90;79.70;;;;;;4920383;29;20123;-78
2021/01/15 05:01:45;;;;;;;7.28;4.80;;;3.80;79.50;;;;;;4933268;28;20065;-78
2021/01/15 05:04:12;;;;;;;7.50;5.50;;;3.80;79.50;;;;;;4940589;28;20031;-80
2021/01/15 05:06:47;;;;;;;6.82;4.97;;;3.80;79.50;;;;;;4957578;28;20509;-78
2021/01/15 05:09:15;;;;;;;7.22;5.25;;;3.90;79.60;;;;;;4976342;28;20046;-79
2021/01/15 05:11:43;;;;;;;6.60;5.20;;;3.80;79.50;;;;;;4958459;28;20020;-81
2021/01/15 05:14:10;;;;;;;6.57;4.97;;;3.90;79.60;;;;;;4942884;28;20038;-79
2021/01/15 05:16:37;;;;;;;8.60;5.60;;;3.90;79.60;;;;;;4952683;28;20019;-79
2021/01/15 05:19:03;;;;;;;7.57;5.35;;;3.90;79.60;;;;;;4942078;28;20046;-79
2021/01/15 05:21:30;;;;;;;7.70;5.45;;;3.90;79.60;;;;;;4958872;28;20469;-78
2021/01/15 05:23:56;;;;;;;8.35;5.47;;;3.90;79.60;;;;;;4941841;28;20442;-79
2021/01/15 05:26:24;;;;;;;7.25;5.10;;;3.90;79.60;;;;;;4925290;28;20035;-80
2021/01/15 05:28:50;;;;;;;6.45;4.88;;;3.90;79.60;;;;;;4936070;28;20039;-78
2021/01/15 05:31:16;;;;;;;7.85;4.93;;;3.90;79.60;;;;;;4969075;28;20037;-79
2021/01/15 05:33:52;;;;;;;7.47;5.72;;;3.90;79.60;;;;;;4958868;28;20046;-78
2021/01/15 05:36:31;;;;;;;7.85;5.43;;;3.90;79.60;;;;;;4942500;28;20376;-79
2021/01/15 05:39:14;;;;;;;7.43;5.32;;;3.90;79.60;;;;;;4958203;28;20865;-79
2021/01/15 05:41:40;;;;;;;7.47;5.38;;;3.90;79.60;;;;;;4958266;28;20476;-79
2021/01/15 05:44:07;;;;;;;6.63;5.00;;;3.90;79.50;;;;;;4942333;28;20038;-77
2021/01/15 05:46:33;;;;;;;6.95;4.95;;;3.90;79.60;;;;;;4938911;28;20035;-79
2021/01/15 05:49:09;;;;;;;6.30;5.03;;;3.90;79.60;;;;;;4942450;28;20035;-79
2021/01/15 05:51:36;;;;;;;7.70;5.15;;;3.90;79.60;;;;;;4974302;28;20031;-78
2021/01/15 05:54:04;;;;;;;7.00;5.25;;;3.90;79.60;;;;;;4974924;28;20030;-77
2021/01/15 05:56:43;;;;;;;7.70;5.38;;;3.90;79.60;;;;;;4953275;28;20027;-79
2021/01/15 05:59:15;;;;;;;7.13;5.20;;;3.90;79.60;;;;;;4957979;28;20378;-77
2021/01/15 06:02:10;;;;;;;7.57;5.10;;;3.90;79.60;;;;;;4956670;28;20495;-77
2021/01/15 06:04:36;;;;;;;6.83;5.13;;;3.90;79.60;;;;;;4945318;28;20431;-76
2021/01/15 06:07:08;;;;;;;7.38;5.65;;;3.90;79.50;;;;;;4972219;28;20174;-76
2021/01/15 06:09:38;;;;;;;6.97;5.05;;;3.90;79.60;;;;;;4951724;28;20118;-77
2021/01/15 06:12:06;;;;;;;7.55;5.25;;;3.90;79.60;;;;;;4948969;28;20392;-79
2021/01/15 06:14:32;;;;;;;8.23;5.60;;;3.90;79.60;;;;;;4950600;28;20019;-76
2021/01/15 06:17:09;;;;;;;7.28;5.47;;;4.00;79.70;;;;;;4940287;28;20030;-77
2021/01/15 06:19:53;;;;;;;6.85;4.97;;;3.90;79.70;;;;;;4950850;28;20029;-77
2021/01/15 06:22:29;;;;;;;7.22;5.20;;;3.90;79.70;;;;;;4951779;28;20034;-78
2021/01/15 06:25:33;;;;;;;7.43;5.38;;;3.90;79.60;;;;;;4975055;28;20027;-80
2021/01/15 06:28:01;;;;;;;7.88;5.45;;;3.90;79.70;;;;;;4953930;28;20089;-78
2021/01/15 06:30:32;;;;;;;7.68;5.45;;;4.00;79.60;;;;;;4949217;29;20543;-77
2021/01/15 06:33:11;;;;;;;7.78;5.22;;;3.90;79.60;;;;;;4969699;28;20050;-77
2021/01/15 06:35:42;;;;;;;7.80;5.80;;;3.90;79.70;;;;;;4962246;28;20121;-77
2021/01/15 06:38:13;;;;;;;7.65;5.55;;;3.90;79.60;;;;;;4957158;28;20026;-78
2021/01/15 06:40:43;;;;;;;7.75;5.55;;;3.90;79.60;;;;;;4974569;28;20085;-79
2021/01/15 06:43:19;;;;;;;7.30;5.25;;;4.00;79.70;;;;;;4941330;28;20027;-78
2021/01/15 06:45:47;;;;;;;6.32;4.82;;;3.90;79.60;;;;;;4957117;28;20027;-78
2021/01/15 06:48:22;;;;;;;8.25;6.18;;;3.90;79.60;;;;;;4957036;28;20031;-78
2021/01/15 06:50:50;;;;;;;7.80;5.80;;;3.90;79.70;;;;;;4965941;28;20034;-76
2021/01/15 06:53:20;;;;;;;8.00;5.65;;;3.90;79.60;;;;;;4942213;28;20050;-77
2021/01/15 06:56:13;;;;;;;7.68;5.63;;;4.00;79.70;;;;;;4957156;28;20034;-79
2021/01/15 06:58:40;;;;;;;8.30;6.15;;;3.90;79.60;;;;;;4953093;28;20043;-78
2021/01/15 07:01:20;;;;;;;7.45;5.78;;;4.00;79.60;;;;;;4937002;29;20514;-78
2021/01/15 07:04:04;;;;;;;8.32;5.70;;;4.00;79.70;;;;;;4944303;28;20114;-80
2021/01/15 07:06:32;;;;;;;7.32;5.60;;;3.90;79.70;;;;;;4956827;28;20031;-79
2021/01/15 07:09:03;;;;;;;8.57;5.78;;;4.00;79.70;;;;;;4940530;28;20042;-78
2021/01/15 07:11:29;;;;;;;7.03;5.45;;;4.00;79.70;;;;;;4956770;28;20062;-77
2021/01/15 07:14:04;;;;;;;8.35;6.25;;;4.00;79.70;;;;;;4940623;28;20023;-77
2021/01/15 07:16:38;;;;;;;8.00;5.90;;;4.00;79.70;;;;;;4921240;28;20031;-78
2021/01/15 07:19:19;;;;;;;7.90;5.25;;;4.00;79.70;;;;;;4948288;28;20023;-79
2021/01/15 07:22:03;;;;;;;7.45;5.72;;;4.00;79.70;;;;;;4944812;28;20034;-78
2021/01/15 07:24:33;;;;;;;8.55;6.07;;;4.00;79.70;;;;;;4974807;28;20030;-78
2021/01/15 07:27:00;;;;;;;7.35;5.60;;;4.00;79.60;;;;;;4939495;28;20130;-77
2021/01/15 07:29:27;;;;;;;8.07;5.85;;;4.00;79.70;;;;;;4957001;28;20031;-79
2021/01/15 07:32:01;;;;;;;7.85;5.82;;;3.90;79.70;;;;;;4974153;28;20023;-77
2021/01/15 07:34:28;;;;;;;7.70;5.60;;;4.00;79.70;;;;;;4986237;28;20033;-78
2021/01/15 07:36:54;;;;;;;7.75;5.85;;;4.00;79.70;;;;;;4956892;28;20379;-78
2021/01/15 07:39:24;;;;;;;7.68;5.68;;;4.00;79.70;;;;;;4973416;28;20105;-78
2021/01/15 07:41:54;;;;;;;7.72;5.78;;;4.00;79.80;;;;;;4945868;29;20140;-78
2021/01/15 07:44:26;;;;;;;7.60;5.82;;;4.00;79.70;;;;;;4940197;28;20307;-79
2021/01/15 07:46:56;;;;;;;9.48;6.53;;;4.00;79.70;;;;;;4984648;28;20030;-79
2021/01/15 07:49:23;;;;;;;9.02;6.07;;;4.00;79.70;;;;;;4955390;28;20058;-78
2021/01/15 07:52:04;;;;;;;8.10;6.00;;;4.00;79.70;;;;;;4956233;28;20287;-77
2021/01/15 07:55:03;;;;;;;8.93;5.82;;;4.00;79.80;;;;;;4938288;28;20069;-77
2021/01/15 07:57:31;;;;;;;8.32;6.00;;;4.00;79.80;;;;;;4938682;28;20054;-77
2021/01/15 07:59:57;;;;;;;7.45;5.90;;;4.00;79.60;;;;;;4956341;28;20459;-77
2021/01/15 08:02:23;;;;;;;8.52;6.32;;;4.00;79.60;;;;;;4939074;28;20131;-77
2021/01/15 08:04:49;;;;;;;7.90;5.60;;;4.00;79.70;;;;;;4933873;29;20047;-77
2021/01/15 08:07:33;;;;;;;8.68;6.45;;;4.00;79.70;;;;;;4917990;29;20046;-77
2021/01/15 08:09:59;;;;;;;8.63;6.05;;;4.00;79.70;;;;;;4920261;29;20044;-77
2021/01/15 08:12:25;;;;;;;7.95;6.05;;;4.00;79.60;;;;;;4934040;29;20492;-77
2021/01/15 08:14:51;;;;;;;8.82;6.25;;;4.00;79.70;;;;;;4933784;29;20043;-78
2021/01/15 08:17:35;;;;;;;8.82;6.30;;;4.00;79.70;;;;;;4905705;29;20057;-78
2021/01/15 08:20:06;;;;;;;8.15;6.18;;;4.00;79.80;;;;;;4905985;29;20028;-77
2021/01/15 08:22:31;;;;;;;8.45;5.90;;;4.10;79.70;;;;;;4937805;29;20039;-78
2021/01/15 08:24:57;;;;;;;9.30;5.95;;;4.10;79.70;;;;;;4920709;29;20159;-77
2021/01/15 08:27:23;;;;;;;8.30;6.03;;;4.00;79.70;;;;;;4936972;29;20035;-77
2021/01/15 08:29:52;;;;;;;7.63;5.55;;;4.10;79.70;;;;;;4937655;29;20490;-77
2021/01/15 08:32:17;;;;;;;7.85;6.07;;;4.00;79.70;;;;;;4938252;29;20027;-77
2021/01/15 08:34:44;;;;;;;8.55;6.00;;;4.10;79.70;;;;;;4918188;29;20032;-77
2021/01/15 08:37:15;;;;;;;8.65;6.00;;;4.00;79.70;;;;;;4916466;29;20440;-78
2021/01/15 08:39:49;;;;;;;7.85;6.07;;;4.10;79.80;;;;;;4937345;29;20050;-80
2021/01/15 08:42:16;;;;;;;7.90;6.05;;;4.10;79.80;;;;;;4936997;29;20367;-77
2021/01/15 08:44:45;;;;;;;7.85;5.97;;;4.10;80.40;;;;;;4936745;29;20083;-77
2021/01/15 08:47:14;;;;;;;7.85;5.88;;;4.10;79.70;;;;;;4935983;29;20531;-77
2021/01/15 08:49:54;;;;;;;8.73;5.78;;;4.10;79.80;;;;;;4921110;29;20238;-78
2021/01/15 08:52:34;;;;;;;7.55;5.18;;;4.10;79.90;;;;;;4920765;29;20064;-78
2021/01/15 08:55:01;;;;;;;8.27;6.22;;;4.10;79.80;;;;;;4921160;29;20392;-78
2021/01/15 08:57:30;;;;;;;8.75;5.70;;;4.10;79.70;;;;;;4937097;29;20023;-78
2021/01/15 09:00:06;;;;;;;9.35;6.53;;;4.10;79.70;;;;;;4936854;29;20496;-79
2021/01/15 09:02:35;;;;;;;8.15;5.70;;;4.10;79.70;;;;;;4923043;29;20156;-78
2021/01/15 09:05:03;;;;;;;8.57;6.03;;;4.10;79.70;;;;;;4944097;29;20480;-78
2021/01/15 09:07:29;;;;;;;8.25;5.90;;;4.10;79.70;;;;;;4949418;29;20039;-78
2021/01/15 09:09:56;;;;;;;8.23;5.82;;;4.10;79.70;;;;;;4904183;29;20029;-78
2021/01/15 09:12:25;;;;;;;8.40;6.00;;;4.10;79.70;;;;;;4935968;29;20044;-80
2021/01/15 09:14:50;;;;;;;7.65;5.70;;;4.10;79.70;;;;;;4934050;29;20070;-79
2021/01/15 09:17:16;;;;;;;10.50;6.68;;;4.10;79.70;;;;;;4925622;29;20469;-77
2021/01/15 09:19:42;;;;;;;8.43;6.05;;;4.10;79.70;;;;;;4955953;29;20038;-78
2021/01/15 09:22:17;;;;;;;9.40;6.47;;;4.10;79.70;;;;;;4945393;29;20469;-78
2021/01/15 09:24:43;;;;;;;8.73;5.90;;;4.10;79.80;;;;;;4926736;29;20040;-78
2021/01/15 09:27:10;;;;;;;8.52;5.93;;;4.10;79.70;;;;;;4898648;29;20379;-78
2021/01/15 09:29:38;;;;;;;7.80;5.82;;;4.10;79.70;;;;;;4955785;29;20039;-78
2021/01/15 09:32:04;;;;;;;9.02;6.13;;;4.10;79.70;;;;;;4941889;29;20118;-78
2021/01/15 09:34:30;;;;;;;8.90;6.55;;;4.10;79.70;;;;;;4929236;29;20047;-78
2021/01/15 09:36:57;;;;;;;8.52;6.43;;;4.20;79.80;;;;;;4949643;29;20037;-80
2021/01/15 09:39:24;;;;;;;9.73;6.70;;;4.10;79.70;;;;;;4929437;29;20027;-77
2021/01/15 09:41:52;;;;;;;8.25;6.28;;;4.10;79.70;;;;;;4944985;28;20115;-78
2021/01/15 09:44:20;;;;;;;8.45;5.55;;;4.20;79.80;;;;;;4947205;29;20028;-78
2021/01/15 09:46:47;;;;;;;8.82;6.32;;;4.20;79.80;;;;;;4917479;29;20385;-77
2021/01/15 09:49:14;;;;;;;8.23;5.75;;;4.20;79.80;;;;;;4917414;29;20035;-79
2021/01/15 09:51:39;;;;;;;7.95;5.47;;;4.20;79.80;;;;;;4929275;29;20059;-78
2021/01/15 09:54:05;;;;;;;8.40;6.15;;;4.20;79.70;;;;;;4922271;29;20068;-79
2021/01/15 09:56:33;;;;;;;8.13;5.80;;;4.20;79.70;;;;;;4935957;29;20035;-78
2021/01/15 09:59:00;;;;;;;8.35;5.55;;;4.20;79.80;;;;;;4936158;29;20040;-78
2021/01/15 10:01:27;;;;;;;8.80;5.97;;;4.20;79.80;;;;;;4941343;29;20607;-79
2021/01/15 10:03:55;;;;;;;8.02;5.50;;;4.20;79.80;;;;;;4954942;29;20467;-77
2021/01/15 10:06:22;;;;;;;8.48;6.05;;;4.20;79.80;;;;;;4954596;29;20479;-77
2021/01/15 10:08:48;;;;;;;8.18;5.90;;;4.20;79.80;;;;;;4954251;29;20035;-77
2021/01/15 10:11:25;;;;;;;8.75;6.32;;;4.20;79.70;;;;;;4923140;29;20039;-78
2021/01/15 10:14:02;;;;;;;8.60;6.07;;;4.20;79.80;;;;;;4955832;28;20484;-78
2021/01/15 10:16:28;;;;;;;7.93;5.80;;;4.20;79.70;;;;;;4955251;29;20023;-77
2021/01/15 10:18:55;;;;;;;8.38;6.13;;;4.20;79.70;;;;;;4954953;29;20035;-77
2021/01/15 10:21:28;;;;;;;8.35;5.93;;;4.20;79.70;;;;;;4938341;29;20125;-78
2021/01/15 10:23:58;;;;;;;8.20;5.97;;;4.30;79.80;;;;;;4938887;29;20035;-77
2021/01/15 10:26:31;;;;;;;8.68;5.50;;;4.30;79.80;;;;;;4955078;28;20082;-78
2021/01/15 10:29:06;;;;;;;7.72;5.22;;;4.30;79.90;;;;;;4954022;29;20503;-77
2021/01/15 10:31:45;;;;;;;7.30;5.13;;;4.30;79.80;;;;;;4936394;29;20166;-78
2021/01/15 10:34:11;;;;;;;7.70;5.40;;;4.30;79.80;;;;;;4954372;29;20038;-77
2021/01/15 10:36:40;;;;;;;8.13;5.82;;;4.30;79.80;;;;;;4954036;29;20035;-77
2021/01/15 10:39:06;;;;;;;8.20;5.80;;;4.30;79.80;;;;;;4953845;28;20027;-80
2021/01/15 10:41:34;;;;;;;7.97;5.68;;;4.30;79.80;;;;;;4955109;28;20027;-78
2021/01/15 10:44:02;;;;;;;7.57;5.55;;;4.30;79.80;;;;;;4938020;29;20038;-78
2021/01/15 10:46:39;;;;;;;7.60;5.65;;;4.30;79.80;;;;;;4937568;29;20039;-78
2021/01/15 10:49:16;;;;;;;10.68;7.13;;;4.30;79.90;;;;;;4954003;29;20072;-79
2021/01/15 10:51:46;;;;;;;7.70;5.60;;;4.30;79.90;;;;;;4953934;29;20486;-78
2021/01/15 10:54:12;;;;;;;7.57;5.50;;;4.30;79.80;;;;;;4937539;29;20023;-77
2021/01/15 10:56:46;;;;;;;7.70;5.82;;;4.30;79.80;;;;;;4954726;28;20034;-77
2021/01/15 10:59:12;;;;;;;7.45;5.10;;;4.30;79.80;;;;;;4949887;29;20019;-76
2021/01/15 11:01:43;;;;;;;7.70;5.72;;;4.40;79.90;;;;;;4929772;29;20442;-77
2021/01/15 11:04:10;;;;;;;7.18;5.38;;;4.30;79.80;;;;;;4916878;29;20115;-77
2021/01/15 11:06:36;;;;;;;6.60;4.85;;;4.30;79.80;;;;;;4903061;29;20027;-77
2021/01/15 11:09:04;;;;;;;7.57;5.53;;;4.30;79.80;;;;;;4935587;29;20039;-76
2021/01/15 11:11:30;;;;;;;7.72;5.53;;;4.40;79.90;;;;;;4918453;29;20615;-76
2021/01/15 11:13:56;;;;;;;7.57;5.22;;;4.40;79.80;;;;;;4902868;29;20389;-76
2021/01/15 11:16:23;;;;;;;7.90;5.18;;;4.40;79.80;;;;;;4933785;29;20102;-76
2021/01/15 11:18:49;;;;;;;7.55;5.22;;;4.40;79.80;;;;;;4930985;29;20361;-77
2021/01/15 11:21:23;;;;;;;7.20;5.35;;;4.40;79.80;;;;;;4930576;29;20039;-77
2021/01/15 11:23:49;;;;;;;7.30;5.33;;;4.40;79.90;;;;;;4934460;29;20042;-77
2021/01/15 11:26:24;;;;;;;8.30;5.38;;;4.40;79.80;;;;;;4918068;29;20031;-77
2021/01/15 11:28:53;;;;;;;;;;;4.40;79.80;;;;;;4905140;29;20389;-77
2021/01/15 11:31:20;;;;;;;7.40;5.43;;;4.40;79.70;;;;;;4935128;29;19921;-77
2021/01/15 11:33:46;;;;;;;7.50;5.60;;;4.50;79.50;;;;;;4933842;29;20024;-77
2021/01/15 11:36:12;;;;;;;8.40;5.78;;;4.40;79.60;;;;;;4898951;29;20028;-77
2021/01/15 11:38:39;;;;;;;7.28;5.72;;;4.40;79.70;;;;;;4933786;29;20040;-77
2021/01/15 11:41:05;;;;;;;7.03;5.65;;;4.40;79.80;;;;;;4935441;29;20042;-77
2021/01/15 11:43:35;;;;;;;7.65;5.60;;;4.40;79.80;;;;;;4934883;29;20075;-77
2021/01/15 11:46:02;;;;;;;7.63;5.32;;;4.50;79.80;;;;;;4933871;29;20444;-77
2021/01/15 11:48:28;;;;;;;7.13;5.05;;;4.50;79.80;;;;;;4934012;29;20032;-78
2021/01/15 11:50:56;;;;;;;9.35;6.05;;;4.40;79.70;;;;;;4917270;29;20491;-77
2021/01/15 11:53:22;;;;;;;8.35;5.68;;;4.50;79.80;;;;;;4932908;29;20028;-76
2021/01/15 11:55:49;;;;;;;7.32;5.72;;;4.50;79.80;;;;;;4933492;29;20059;-77
2021/01/15 11:58:16;;;;;;;7.28;5.47;;;4.50;79.80;;;;;;4914294;29;20062;-78
2021/01/15 12:00:42;;;;;;;7.22;5.60;;;4.50;79.80;;;;;;4912667;28;20375;-76
2021/01/15 12:03:08;;;;;;;8.27;5.88;;;4.50;79.80;;;;;;4956116;28;20118;-77
2021/01/15 12:05:38;;;;;;;7.18;5.30;;;4.50;79.70;;;;;;4939911;28;20074;-76
2021/01/15 12:08:04;;;;;;;7.85;5.63;;;4.50;79.70;;;;;;4957368;28;20027;-76
2021/01/15 12:10:30;;;;;;;8.18;5.63;;;4.50;79.70;;;;;;4964861;28;20843;-77
2021/01/15 12:12:56;;;;;;;7.65;5.63;;;4.50;79.70;;;;;;4956053;28;20463;-76
2021/01/15 12:15:21;;;;;;;7.40;5.68;;;4.50;79.70;;;;;;4955823;28;20034;-77
2021/01/15 12:17:47;;;;;;;7.45;5.45;;;4.50;79.70;;;;;;4924202;28;20034;-77
2021/01/15 12:20:13;;;;;;;7.70;5.70;;;4.60;79.80;;;;;;4939942;28;20162;-78
2021/01/15 12:22:44;;;;;;;7.88;5.78;;;4.60;79.80;;;;;;4973065;28;20041;-76
2021/01/15 12:25:11;;;;;;;7.55;5.80;;;4.60;79.80;;;;;;4939595;28;20034;-77
2021/01/15 12:27:37;;;;;;;7.57;5.75;;;4.60;79.70;;;;;;4938430;28;20475;-77
2021/01/15 12:30:04;;;;;;;7.07;5.55;;;4.60;79.80;;;;;;4953857;28;20038;-76
2021/01/15 12:32:30;;;;;;;8.27;6.13;;;4.60;79.80;;;;;;4934181;29;20118;-77
2021/01/15 12:34:56;;;;;;;7.90;5.43;;;4.60;79.80;;;;;;4952509;28;20179;-77
2021/01/15 12:37:28;;;;;;;7.72;5.85;;;4.60;79.80;;;;;;4952992;28;20038;-77
2021/01/15 12:39:55;;;;;;;7.15;5.35;;;4.60;79.80;;;;;;4936998;29;20031;-77
2021/01/15 12:42:21;;;;;;;8.00;5.82;;;4.60;79.70;;;;;;4936511;29;20042;-77
2021/01/15 12:44:47;;;;;;;7.45;5.55;;;4.60;79.80;;;;;;4963555;28;20042;-77
2021/01/15 12:47:13;;;;;;;7.63;5.72;;;4.60;79.80;;;;;;4986383;28;20157;-76
2021/01/15 12:49:39;;;;;;;8.23;5.90;;;4.60;79.70;;;;;;4955465;28;20113;-77
2021/01/15 12:52:04;;;;;;;7.95;6.05;;;4.60;80.40;;;;;;4908163;28;20055;-77
2021/01/15 12:54:30;;;;;;;9.13;6.50;;;4.70;79.80;;;;;;4939674;28;20067;-77
2021/01/15 12:56:56;;;;;;;7.55;5.97;;;4.60;79.80;;;;;;4924135;28;20475;-77
2021/01/15 12:59:21;;;;;;;8.63;6.28;;;4.70;79.80;;;;;;4955512;28;20395;-78
2021/01/15 13:01:47;;;;;;;8.50;6.00;;;4.60;79.70;;;;;;4965173;28;20050;-77
2021/01/15 13:04:13;;;;;;;7.60;5.35;;;4.70;79.80;;;;;;4930554;28;20495;-77
2021/01/15 13:06:40;;;;;;;7.80;5.88;;;4.70;79.80;;;;;;4958125;28;20037;-77
2021/01/15 13:09:08;;;;;;;6.90;5.50;;;4.60;79.70;;;;;;4942778;28;20043;-77
2021/01/15 13:11:35;;;;;;;8.05;5.70;;;4.70;79.80;;;;;;4942093;28;20027;-77